createdAt,value
2023-02-16T00:02:21.336Z,0.35
2023-02-16T00:04:50.449Z,0.29
2023-02-16T00:07:19.132Z,0.10
2023-02-16T00:09:47.879Z,0.24
2023-02-16T00:12:40.519Z,0.26
2023-02-16T00:15:20.663Z,0.25
2023-02-16T00:17:49.399Z,0.17
2023-02-16T00:20:19.634Z,0.14
2023-02-16T00:22:48.433Z,0.13
2023-02-16T00:25:17.490Z,0.30
2023-02-16T00:27:46.544Z,0.30
2023-02-16T00:30:19.732Z,0.38
2023-02-16T00:32:51.543Z,0.41
2023-02-16T00:35:23.171Z,0.32
2023-02-16T00:37:51.984Z,0.39
2023-02-16T00:40:20.845Z,0.43
2023-02-16T00:42:49.774Z,0.46
2023-02-16T00:45:22.823Z,0.38
2023-02-16T00:47:53.827Z,0.23
2023-02-16T00:50:27.329Z,0.31
2023-02-16T00:52:58.607Z,0.35
2023-02-16T00:55:31.427Z,0.26
2023-02-16T00:58:09.807Z,0.16
2023-02-16T01:00:45.601Z,0.26
2023-02-16T01:03:19.769Z,0.06
2023-02-16T01:05:48.756Z,0.21
2023-02-16T01:08:36.879Z,0.30
2023-02-16T01:11:10.401Z,0.34
2023-02-16T01:13:47.317Z,0.35
2023-02-16T01:16:20.506Z,0.35
2023-02-16T01:18:51.107Z,0.29
2023-02-16T01:21:22.460Z,0.13
2023-02-16T01:23:51.133Z,0.23
2023-02-16T01:26:22.163Z,0.16
2023-02-16T01:28:51.251Z,0.05
2023-02-16T01:31:21.478Z,0.07
2023-02-16T01:33:50.862Z,-0.08
2023-02-16T01:36:27.381Z,-0.16
2023-02-16T01:38:55.980Z,-0.13
2023-02-16T01:41:52.610Z,-0.10
2023-02-16T01:44:28.507Z,-0.16
2023-02-16T01:47:07.366Z,-0.12
2023-02-16T01:49:36.194Z,-0.20
2023-02-16T01:52:14.219Z,-0.15
2023-02-16T01:54:52.911Z,-0.18
2023-02-16T01:57:38.982Z,-0.08
2023-02-16T02:00:30.671Z,-0.23
2023-02-16T02:03:18.458Z,-0.28
2023-02-16T02:05:48.051Z,-0.11
2023-02-16T02:08:29.270Z,-0.01
2023-02-16T02:11:13.692Z,0.05
2023-02-16T02:13:53.630Z,0.09
2023-02-16T02:16:28.917Z,0.13
2023-02-16T02:18:59.590Z,0.16
2023-02-16T02:22:19.509Z,0.19
2023-02-16T02:25:30.928Z,0.21
2023-02-16T02:28:11.777Z,0.21
2023-02-16T02:30:51.927Z,0.18
2023-02-16T02:33:53.485Z,0.12
2023-02-16T02:36:37.137Z,0.16
2023-02-16T02:39:22.351Z,0.11
2023-02-16T02:42:06.010Z,0.15
2023-02-16T02:44:56.217Z,0.16
2023-02-16T02:47:25.158Z,0.01
2023-02-16T02:49:56.260Z,0.05
2023-02-16T02:52:28.564Z,0.00
2023-02-16T02:55:15.072Z,0.07
2023-02-16T02:58:16.392Z,0.09
2023-02-16T03:00:49.584Z,0.13
2023-02-16T03:03:27.745Z,0.13
2023-02-16T03:06:03.732Z,-0.04
2023-02-16T03:08:37.407Z,0.00
2023-02-16T03:11:30.210Z,-0.02
2023-02-16T03:14:04.371Z,-0.02
2023-02-16T03:16:40.361Z,0.04
2023-02-16T03:19:31.548Z,0.05
2023-02-16T03:22:20.020Z,0.09
2023-02-16T03:25:06.718Z,0.02
2023-02-16T03:27:58.662Z,0.00
2023-02-16T03:30:29.186Z,0.00
2023-02-16T03:32:59.517Z,0.02
2023-02-16T03:35:29.512Z,-0.09
2023-02-16T03:37:58.379Z,-0.08
2023-02-16T03:40:34.974Z,-0.11
2023-02-16T03:43:07.281Z,-0.10
2023-02-16T03:45:40.359Z,-0.07
2023-02-16T03:48:11.202Z,-0.05
2023-02-16T03:50:39.928Z,-0.12
2023-02-16T03:53:09.165Z,-0.09
2023-02-16T03:55:41.021Z,-0.08
2023-02-16T03:58:13.010Z,-0.11
2023-02-16T04:00:42.714Z,-0.18
2023-02-16T04:03:12.964Z,-0.10
2023-02-16T04:05:42.096Z,-0.13
2023-02-16T04:08:12.441Z,-0.19
2023-02-16T04:10:41.742Z,-0.17
2023-02-16T04:13:09.835Z,-0.15
2023-02-16T04:15:38.460Z,-0.11
2023-02-16T04:18:17.616Z,-0.18
2023-02-16T04:20:46.597Z,-0.21
2023-02-16T04:23:15.358Z,-0.15
2023-02-16T04:25:44.076Z,-0.14
2023-02-16T04:28:12.803Z,-0.23
2023-02-16T04:30:41.611Z,-0.22
2023-02-16T04:33:10.415Z,-0.23
2023-02-16T04:35:40.461Z,-0.19
2023-02-16T04:38:09.156Z,-0.31
2023-02-16T04:40:37.884Z,-0.23
2023-02-16T04:43:06.662Z,-0.20
2023-02-16T04:45:35.552Z,-0.24
2023-02-16T04:48:04.295Z,-0.19
2023-02-16T04:50:33.160Z,-0.27
2023-02-16T04:53:05.218Z,-0.27
2023-02-16T04:55:37.314Z,-0.28
2023-02-16T04:58:06.044Z,-0.31
2023-02-16T05:00:36.537Z,-0.22
2023-02-16T05:03:05.551Z,-0.18
2023-02-16T05:05:35.199Z,-0.29
2023-02-16T05:08:07.694Z,-0.21
2023-02-16T05:10:36.567Z,-0.28
2023-02-16T05:13:22.901Z,-0.32
2023-02-16T05:15:52.311Z,-0.18
2023-02-16T05:18:24.544Z,-0.19
2023-02-16T05:21:11.302Z,-0.22
2023-02-16T05:23:41.525Z,-0.16
2023-02-16T05:26:10.323Z,-0.15
2023-02-16T05:28:39.041Z,-0.24
2023-02-16T05:31:08.500Z,-0.12
2023-02-16T05:33:39.174Z,-0.19
2023-02-16T05:36:09.772Z,-0.15
2023-02-16T05:38:40.198Z,-0.14
2023-02-16T05:41:09.268Z,-0.13
2023-02-16T05:43:42.219Z,-0.09
2023-02-16T05:46:11.487Z,-0.08
2023-02-16T05:48:40.286Z,-0.10
2023-02-16T05:51:09.285Z,-0.01
2023-02-16T05:53:43.038Z,-0.09
2023-02-16T05:56:20.066Z,-0.01
2023-02-16T05:58:52.499Z,-0.05
2023-02-16T06:01:25.216Z,-0.09
2023-02-16T06:03:57.885Z,-0.06
2023-02-16T06:06:28.902Z,0.00
2023-02-16T06:08:59.929Z,0.00
2023-02-16T06:11:38.271Z,-0.04
2023-02-16T06:14:12.187Z,0.03
2023-02-16T06:16:45.136Z,0.01
2023-02-16T06:19:15.374Z,0.08
2023-02-16T06:21:45.280Z,0.07
2023-02-16T06:25:10.382Z,0.12
2023-02-16T06:27:39.082Z,0.09
2023-02-16T06:30:09.883Z,0.14
2023-02-16T06:32:38.679Z,0.16
2023-02-16T06:35:08.557Z,0.19
2023-02-16T06:37:37.336Z,0.21
2023-02-16T06:40:10.005Z,0.16
2023-02-16T06:42:40.312Z,0.18
2023-02-16T06:45:10.505Z,0.12
2023-02-16T06:47:40.568Z,0.05
2023-02-16T06:50:11.378Z,0.04
2023-02-16T06:52:40.118Z,0.14
2023-02-16T06:55:10.074Z,0.17
2023-02-16T06:57:56.227Z,0.18
2023-02-16T07:00:29.890Z,0.23
2023-02-16T07:02:58.909Z,0.24
2023-02-16T07:05:27.661Z,0.26
2023-02-16T07:07:56.462Z,0.28
2023-02-16T07:10:25.313Z,0.23
2023-02-16T07:13:03.307Z,0.22
2023-02-16T07:18:49.481Z,0.38
2023-02-16T07:21:18.286Z,0.42
2023-02-16T07:23:47.153Z,0.45
2023-02-16T07:26:15.968Z,0.47
2023-02-16T07:28:46.157Z,0.45
2023-02-16T07:31:18.474Z,0.47
2023-02-16T07:33:47.335Z,0.49
2023-02-16T07:36:16.360Z,0.50
2023-02-16T07:38:45.243Z,0.58
2023-02-16T07:44:50.468Z,0.68
2023-02-16T07:47:19.245Z,0.72
2023-02-16T07:49:47.981Z,0.77
2023-02-16T07:52:25.499Z,0.84
2023-02-16T07:54:54.124Z,0.90
2023-02-16T07:57:22.802Z,0.98
2023-02-16T07:59:54.707Z,1.05
2023-02-16T08:02:27.410Z,1.14
2023-02-16T08:04:56.588Z,1.22
2023-02-16T08:07:25.258Z,1.26
2023-02-16T08:09:54.537Z,1.31
2023-02-16T08:12:23.363Z,1.40
2023-02-16T08:15:54.490Z,1.48
2023-02-16T08:18:41.873Z,1.58
2023-02-16T08:21:15.073Z,1.61
2023-02-16T08:27:07.974Z,1.80
2023-02-16T08:29:37.015Z,1.87
2023-02-16T08:32:07.929Z,1.95
2023-02-16T08:34:53.085Z,2.03
2023-02-16T08:37:22.697Z,2.13
2023-02-16T08:39:52.131Z,2.26
2023-02-16T08:42:56.827Z,2.41
2023-02-16T08:45:25.724Z,2.53
2023-02-16T08:48:13.956Z,2.64
2023-02-16T08:50:53.680Z,2.76
2023-02-16T08:53:36.820Z,2.86
2023-02-16T08:56:07.163Z,2.99
2023-02-16T08:58:41.634Z,3.07
2023-02-16T09:01:12.959Z,3.25
2023-02-16T09:03:43.700Z,3.33
2023-02-16T09:06:17.213Z,3.45
2023-02-16T09:08:46.650Z,3.52
2023-02-16T09:11:17.425Z,3.61
2023-02-16T09:13:48.932Z,3.76
2023-02-16T09:16:24.782Z,3.98
2023-02-16T09:18:54.230Z,4.16
2023-02-16T09:21:27.119Z,4.38
2023-02-16T09:23:58.317Z,4.57
2023-02-16T09:26:38.702Z,4.90
2023-02-16T09:29:08.263Z,5.16
2023-02-16T09:31:39.671Z,5.42
2023-02-16T09:34:16.186Z,5.58
2023-02-16T09:36:47.290Z,5.77
2023-02-16T09:39:17.733Z,5.93
2023-02-16T09:42:09.096Z,6.09
2023-02-16T09:44:55.043Z,6.14
2023-02-16T09:47:31.214Z,6.24
2023-02-16T09:50:03.988Z,6.38
2023-02-16T09:52:41.880Z,6.51
2023-02-16T09:55:18.195Z,6.75
2023-02-16T09:58:03.215Z,6.96
2023-02-16T10:00:49.670Z,7.29
2023-02-16T10:03:52.291Z,7.65
2023-02-16T10:06:44.419Z,7.84
2023-02-16T10:09:21.633Z,8.01
2023-02-16T10:12:01.146Z,8.17
2023-02-16T10:14:37.204Z,8.26
2023-02-16T10:17:18.759Z,8.43
2023-02-16T10:19:55.694Z,8.60
2023-02-16T10:22:33.889Z,8.58
2023-02-16T10:25:14.964Z,8.38
2023-02-16T10:27:55.053Z,8.20
2023-02-16T10:30:36.704Z,8.10
2023-02-16T10:33:17.067Z,7.95
2023-02-16T10:35:49.778Z,7.77
2023-02-16T10:38:32.662Z,7.55
2023-02-16T10:41:18.373Z,7.40
2023-02-16T10:43:58.231Z,7.28
2023-02-16T10:46:32.561Z,7.12
2023-02-16T10:49:02.765Z,7.11
2023-02-16T10:51:40.696Z,7.13
2023-02-16T10:54:18.397Z,7.16
2023-02-16T10:57:15.004Z,7.17
2023-02-16T10:59:49.574Z,7.17
2023-02-16T11:02:40.487Z,7.30
2023-02-16T11:05:38.691Z,7.33
2023-02-16T11:08:14.638Z,7.29
2023-02-16T11:10:51.026Z,7.32
2023-02-16T11:13:47.227Z,7.46
2023-02-16T11:16:44.455Z,7.57
2023-02-16T11:19:27.048Z,7.67
2023-02-16T11:21:59.519Z,7.61
2023-02-16T11:24:32.027Z,7.59
2023-02-16T11:27:09.096Z,7.63
2023-02-16T11:31:05.098Z,7.63
2023-02-16T11:33:36.130Z,7.74
2023-02-16T11:36:26.540Z,7.72
2023-02-16T11:39:06.433Z,7.76
2023-02-16T11:43:11.446Z,7.75
2023-02-16T11:53:30.081Z,7.80
2023-02-16T11:56:34.938Z,7.77
2023-02-16T11:59:21.117Z,7.78
2023-02-16T12:02:40.758Z,7.77
2023-02-16T12:05:41.058Z,7.84
2023-02-16T12:08:38.617Z,7.88
2023-02-16T12:11:26.490Z,7.97
2023-02-16T12:14:16.995Z,8.11
2023-02-16T12:16:55.906Z,8.31
2023-02-16T12:19:40.049Z,8.38
2023-02-16T12:22:36.746Z,8.50
2023-02-16T12:25:26.121Z,8.60
2023-02-16T12:28:13.587Z,8.63
2023-02-16T12:30:58.402Z,8.63
2023-02-16T12:33:48.055Z,8.60
2023-02-16T12:36:48.778Z,8.69
2023-02-16T12:39:26.972Z,8.77
2023-02-16T12:42:18.332Z,8.80
2023-02-16T12:44:53.686Z,8.86
2023-02-16T12:47:30.464Z,8.87
2023-02-16T12:50:05.147Z,8.81
2023-02-16T12:52:43.354Z,8.79
2023-02-16T12:55:23.302Z,8.78
2023-02-16T12:58:04.317Z,8.81
2023-02-16T13:00:48.047Z,8.90
2023-02-16T13:03:33.961Z,8.95
2023-02-16T13:06:18.417Z,8.96
2023-02-16T13:08:58.340Z,9.03
2023-02-16T13:11:36.708Z,9.05
2023-02-16T13:14:19.083Z,9.05
2023-02-16T13:16:54.995Z,9.08
2023-02-16T13:19:24.207Z,9.12
2023-02-16T13:22:28.949Z,9.19
2023-02-16T13:25:42.115Z,9.19
2023-02-16T13:28:53.870Z,9.19
2023-02-16T13:31:44.987Z,9.16
2023-02-16T13:34:53.216Z,9.25
2023-02-16T13:37:51.550Z,9.31
2023-02-16T13:40:54.298Z,9.27
2023-02-16T13:43:34.131Z,9.27
2023-02-16T13:46:39.205Z,9.22
2023-02-16T13:49:32.654Z,9.21
2023-02-16T13:52:02.925Z,9.18
2023-02-16T13:59:51.119Z,9.02
2023-02-16T14:02:58.312Z,8.98
2023-02-16T14:05:34.080Z,9.00
2023-02-16T14:08:28.552Z,8.96
2023-02-16T14:11:04.199Z,8.92
2023-02-16T14:13:45.424Z,8.84
2023-02-16T14:16:34.660Z,8.82
2023-02-16T14:19:25.107Z,8.71
2023-02-16T14:22:10.059Z,8.64
2023-02-16T14:24:44.554Z,8.63
2023-02-16T14:27:40.524Z,8.63
2023-02-16T14:30:29.420Z,8.60
2023-02-16T14:33:06.167Z,8.65
2023-02-16T14:35:39.979Z,8.68
2023-02-16T14:38:37.728Z,8.69
2023-02-16T14:41:14.005Z,8.67
2023-02-16T14:43:47.210Z,8.57
2023-02-16T14:46:45.587Z,8.54
2023-02-16T14:49:52.060Z,8.57
2023-02-16T14:53:51.344Z,8.58
2023-02-16T14:56:42.231Z,8.55
2023-02-16T14:59:28.010Z,8.57
2023-02-16T15:01:57.736Z,8.51
2023-02-16T15:04:51.886Z,8.48
2023-02-16T15:07:32.412Z,8.38
2023-02-16T15:10:12.238Z,8.35
2023-02-16T15:12:58.897Z,8.32
2023-02-16T15:15:44.809Z,8.25
2023-02-16T15:18:20.063Z,8.21
2023-02-16T15:20:55.201Z,8.11
2023-02-16T15:23:27.461Z,8.05
2023-02-16T15:26:03.673Z,7.98
2023-02-16T15:29:06.242Z,7.90
2023-02-16T15:32:53.964Z,7.79
2023-02-16T15:36:19.689Z,7.67
2023-02-16T15:39:05.906Z,7.56
2023-02-16T15:42:27.382Z,7.50
2023-02-16T15:45:08.232Z,7.41
2023-02-16T15:47:39.547Z,7.33
2023-02-16T15:50:16.342Z,7.17
2023-02-16T15:58:08.011Z,6.98
2023-02-16T16:01:06.477Z,6.93
2023-02-16T16:03:46.793Z,6.83
2023-02-16T16:20:34.524Z,6.31
2023-02-16T16:23:27.539Z,6.22
2023-02-16T16:30:31.462Z,6.01
2023-02-16T16:34:18.499Z,6.03
2023-02-16T16:37:08.505Z,5.89
2023-02-16T16:39:41.974Z,5.77
2023-02-16T16:42:24.571Z,5.82
2023-02-16T16:45:10.972Z,5.80
2023-02-16T16:47:42.290Z,5.70
2023-02-16T16:50:34.551Z,5.67
2023-02-16T16:53:44.467Z,5.62
2023-02-16T16:56:15.938Z,5.51
2023-02-16T16:58:50.572Z,5.45
2023-02-16T17:01:21.933Z,5.41
2023-02-16T17:04:22.467Z,5.41
2023-02-16T17:06:51.514Z,5.35
2023-02-16T17:09:21.917Z,5.41
2023-02-16T17:12:17.278Z,5.31
2023-02-16T17:14:46.319Z,5.36
2023-02-16T17:17:16.002Z,5.32
2023-02-16T17:19:48.385Z,5.36
2023-02-16T17:22:24.654Z,5.42
2023-02-16T17:24:57.457Z,5.43
2023-02-16T17:27:29.636Z,5.43
2023-02-16T17:29:59.969Z,5.49
2023-02-16T17:32:29.769Z,5.48
2023-02-16T17:35:18.186Z,5.40
2023-02-16T17:37:48.116Z,5.51
2023-02-16T17:40:23.112Z,5.48
2023-02-16T17:42:54.644Z,5.52
2023-02-16T17:45:26.876Z,5.48
2023-02-16T17:48:00.747Z,5.54
2023-02-16T17:50:32.849Z,5.50
2023-02-16T17:53:02.924Z,5.46
2023-02-16T17:55:33.387Z,5.49
2023-02-16T17:58:02.280Z,5.46
2023-02-16T18:00:31.819Z,5.36
2023-02-16T18:03:02.797Z,5.45
2023-02-16T18:05:33.320Z,5.46
2023-02-16T18:08:09.921Z,5.42
2023-02-16T18:10:44.214Z,5.43
2023-02-16T18:13:14.951Z,5.45
2023-02-16T18:15:47.893Z,5.48
2023-02-16T18:18:18.677Z,5.48
2023-02-16T18:21:43.971Z,5.50
2023-02-16T18:24:15.804Z,5.49
2023-02-16T18:26:48.221Z,5.51
2023-02-16T18:29:17.497Z,5.56
2023-02-16T18:31:47.515Z,5.56
2023-02-16T18:34:16.571Z,5.53
2023-02-16T18:36:48.573Z,5.57
2023-02-16T18:39:18.365Z,5.57
2023-02-16T18:41:48.981Z,5.50
2023-02-16T18:44:17.967Z,5.52
2023-02-16T18:46:55.475Z,5.59
2023-02-16T18:49:24.364Z,5.63
2023-02-16T18:51:53.186Z,5.67
2023-02-16T18:54:24.024Z,5.74
2023-02-16T18:56:59.213Z,5.75
2023-02-16T18:59:29.044Z,5.77
2023-02-16T19:02:01.410Z,5.79
2023-02-16T19:04:56.614Z,5.76
2023-02-16T19:07:25.408Z,5.74
2023-02-16T19:09:54.273Z,5.77
2023-02-16T19:12:29.300Z,5.78
2023-02-16T19:15:05.089Z,5.83
2023-02-16T19:18:03.925Z,5.87
2023-02-16T19:20:32.824Z,5.97
2023-02-16T19:23:01.720Z,6.01
2023-02-16T19:25:30.726Z,6.01
2023-02-16T19:28:07.600Z,6.05
2023-02-16T19:30:36.618Z,6.10
2023-02-16T19:33:07.509Z,6.12
2023-02-16T19:35:38.460Z,6.18
2023-02-16T19:38:34.378Z,6.24
2023-02-16T19:41:10.021Z,6.29
2023-02-16T19:43:40.661Z,6.33
2023-02-16T19:46:11.204Z,6.35
2023-02-16T19:48:41.599Z,6.40
2023-02-16T19:51:11.937Z,6.42
2023-02-16T19:53:41.591Z,6.46
2023-02-16T19:56:15.581Z,6.45
2023-02-16T19:58:48.439Z,6.51
2023-02-16T20:01:20.920Z,6.51
2023-02-16T20:03:51.943Z,6.54
2023-02-16T20:06:24.838Z,6.55
2023-02-16T20:08:56.398Z,6.57
2023-02-16T20:11:27.957Z,6.51
2023-02-16T20:13:59.486Z,6.52
2023-02-16T20:16:29.331Z,6.56
2023-02-16T20:18:59.790Z,6.54
2023-02-16T20:21:31.147Z,6.55
2023-02-16T20:24:02.779Z,6.54
2023-02-16T20:26:34.560Z,6.56
2023-02-16T20:29:07.508Z,6.57
2023-02-16T20:31:40.679Z,6.61
2023-02-16T20:34:11.338Z,6.65
2023-02-16T20:36:40.476Z,6.65
2023-02-16T20:39:09.872Z,6.70
2023-02-16T20:41:39.094Z,6.68
2023-02-16T20:44:10.637Z,6.70
2023-02-16T20:46:40.661Z,6.72
2023-02-16T20:49:10.447Z,6.71
2023-02-16T20:51:41.412Z,6.71
2023-02-16T20:54:12.411Z,6.71
2023-02-16T20:56:41.358Z,6.74
2023-02-16T20:59:13.395Z,6.72
2023-02-16T21:01:46.708Z,6.75
2023-02-16T21:04:18.712Z,6.81
2023-02-16T21:06:47.657Z,6.83
2023-02-16T21:09:17.265Z,6.76
2023-02-16T21:11:46.120Z,6.80
2023-02-16T21:14:16.494Z,6.81
2023-02-16T21:16:45.411Z,6.84
2023-02-16T21:19:22.588Z,6.82
2023-02-16T21:21:52.577Z,6.80
2023-02-16T21:24:21.624Z,6.82
2023-02-16T21:26:50.624Z,6.82
2023-02-16T21:29:20.843Z,6.81
2023-02-16T21:31:49.683Z,6.77
2023-02-16T21:34:18.668Z,6.76
2023-02-16T21:36:47.547Z,6.78
2023-02-16T21:39:16.345Z,6.79
2023-02-16T21:41:44.237Z,6.80
2023-02-16T21:44:15.940Z,6.77
2023-02-16T21:46:48.955Z,6.73
2023-02-16T21:49:19.327Z,6.82
2023-02-16T21:51:50.661Z,6.82
2023-02-16T21:54:42.168Z,6.87
2023-02-16T21:57:09.911Z,6.91
2023-02-16T21:59:39.040Z,6.89
2023-02-16T22:02:11.733Z,6.91
2023-02-16T22:04:41.365Z,6.93
2023-02-16T22:07:10.273Z,6.97
2023-02-16T22:09:39.124Z,6.96
2023-02-16T22:12:08.092Z,6.93
2023-02-16T22:14:36.876Z,6.91
2023-02-16T22:17:07.753Z,6.95
2023-02-16T22:19:37.977Z,7.00
2023-02-16T22:22:06.923Z,7.01
2023-02-16T22:24:35.718Z,7.01
2023-02-16T22:27:04.578Z,7.03
2023-02-16T22:29:33.375Z,7.06
2023-02-16T22:32:03.290Z,7.03
2023-02-16T22:34:32.194Z,7.06
2023-02-16T22:37:02.593Z,7.07
2023-02-16T22:39:32.799Z,7.08
2023-02-16T22:42:01.574Z,7.05
2023-02-16T22:44:30.739Z,7.04
2023-02-16T22:46:59.556Z,7.06
2023-02-16T22:49:28.321Z,7.07
2023-02-16T22:51:57.727Z,7.08
2023-02-16T22:54:27.964Z,7.06
2023-02-16T22:56:56.882Z,7.08
2023-02-16T22:59:25.701Z,7.05
2023-02-16T23:01:54.602Z,7.05
2023-02-16T23:04:23.521Z,7.08
2023-02-16T23:06:52.316Z,7.03
2023-02-16T23:09:23.294Z,7.02
2023-02-16T23:11:53.573Z,6.95
2023-02-16T23:14:22.388Z,6.88
2023-02-16T23:16:54.564Z,6.86
2023-02-16T23:19:26.553Z,6.83
2023-02-16T23:21:56.263Z,6.79
2023-02-16T23:24:26.028Z,6.73
2023-02-16T23:26:57.819Z,6.70
2023-02-16T23:29:27.318Z,6.66
2023-02-16T23:31:56.077Z,6.68
2023-02-16T23:34:24.990Z,6.70
2023-02-16T23:36:53.744Z,6.66
2023-02-16T23:39:22.534Z,6.67
2023-02-16T23:41:51.504Z,6.68
2023-02-16T23:44:21.764Z,6.67
2023-02-16T23:46:51.335Z,6.65
2023-02-16T23:49:20.158Z,6.64
2023-02-16T23:51:48.881Z,6.62
2023-02-16T23:54:17.654Z,6.56
2023-02-16T23:56:46.509Z,6.53
2023-02-16T23:59:15.321Z,6.54
